Grain Valley, Missouri
Current Conditions -  °F | °C
As of 11:53 PM on Thursday 30 Oct 2014 (Local Time) from KLXT Reporting Station
Clear Clear  
Wind Chill: 53°   Ceiling: Unl
Heat Index: 53°   Visibility: 10mi
Dew Point: 40°   Wind: 22mph
Humidity: 61%   Direction: 340°NNW
Pressure: 30.19"   Gusts: 28mph
Location:  39.02°N, 94.2°W
Report Text: KLXT 310453Z AUTO 34019G24KT 10SM CLR 12/04 A3019 RMK AO2 SLP224 T01170044
Loading
Personal Weather Stations






























Interactive Weather Map
Tropical Storm Tracking
New forecast layout! Learn more

10-Day Weather Forecast

Advertisements
Track Severe Weather on mobile